Time;durP1;ratioP1;P1;durP2;ratioP2;P2;SDS_P1;SDS_P2;PMS_P1;PMS_P2;Temp;Humidity;BMP_temperature;BMP_pressure;BME280_temperature;BME280_humidity;BME280_pressure;Samples;Min_cycle;Max_cycle;Signal;HPM_P1;HPM_P2
2022/12/09 00:00:48;;;;;;;32.35;18.00;;;-1.40;77.90;;;;;;4183556;28;20028;-84
2022/12/09 00:03:09;;;;;;;35.13;18.48;;;-1.40;77.80;;;;;;4181354;28;20163;-85
2022/12/09 00:05:30;;;;;;;32.05;17.48;;;-1.40;77.80;;;;;;4183268;28;20074;-84
2022/12/09 00:07:51;;;;;;;36.97;19.42;;;-1.40;77.60;;;;;;4176602;28;20055;-84
2022/12/09 00:10:11;;;;;;;33.78;18.40;;;-1.40;77.70;;;;;;4176962;28;20528;-85
2022/12/09 00:12:32;;;;;;;39.55;19.27;;;-1.40;77.60;;;;;;4188640;28;20102;-84
2022/12/09 00:14:53;;;;;;;35.83;19.40;;;-1.40;77.60;;;;;;4180843;28;20062;-83
2022/12/09 00:17:14;;;;;;;35.80;19.23;;;-1.40;78.40;;;;;;4181085;28;20115;-85
2022/12/09 00:19:34;;;;;;;33.65;18.05;;;-1.50;77.50;;;;;;4176063;28;20053;-86
2022/12/09 00:21:55;;;;;;;34.80;17.92;;;-1.40;77.50;;;;;;4182602;28;20081;-86
2022/12/09 00:24:15;;;;;;;31.92;17.50;;;-1.40;77.40;;;;;;4183825;28;20494;-85
2022/12/09 00:26:36;;;;;;;32.97;17.38;;;-1.50;77.30;;;;;;4181716;28;20032;-86
2022/12/09 00:28:57;;;;;;;33.72;17.20;;;-1.50;77.40;;;;;;4175983;28;20104;-86
2022/12/09 00:31:23;;;;;;;33.38;17.63;;;-1.50;77.30;;;;;;4177330;28;20037;-85
2022/12/09 00:33:44;;;;;;;32.22;17.10;;;-1.50;77.40;;;;;;4185372;28;20036;-85
2022/12/09 00:36:09;;;;;;;32.65;18.05;;;-1.50;77.60;;;;;;4185995;28;20060;-86
2022/12/09 00:38:29;;;;;;;32.08;16.50;;;-1.50;77.60;;;;;;4185480;28;20040;-84
2022/12/09 00:40:50;;;;;;;31.80;16.30;;;-1.50;77.50;;;;;;4187442;28;20032;-84
2022/12/09 00:42:50;;;;;;;35.08;17.83;;;-1.50;77.50;;;;;;4172913;28;20029;-83
2022/12/09 00:44:52;;;;;;;31.40;15.90;;;-1.50;77.60;;;;;;4175280;28;20681;-84
2022/12/09 00:46:53;;;;;;;32.40;16.58;;;-1.50;77.60;;;;;;4182297;28;20032;-84
2022/12/09 00:49:04;;;;;;;34.35;17.40;;;-1.50;77.60;;;;;;4178869;28;20029;-83
2022/12/09 00:51:25;;;;;;;32.67;16.83;;;-1.60;77.70;;;;;;4176270;28;20024;-83
2022/12/09 00:53:26;;;;;;;31.95;16.73;;;-1.50;77.70;;;;;;4176574;28;20033;-83
2022/12/09 00:55:34;;;;;;;34.17;16.65;;;-1.50;77.70;;;;;;4179715;28;20031;-84
2022/12/09 00:57:36;;;;;;;37.28;17.13;;;-1.50;77.70;;;;;;4178871;28;20033;-84
2022/12/09 00:59:56;;;;;;;28.30;15.57;;;-1.50;77.80;;;;;;4178039;28;20055;-84
2022/12/09 01:02:17;;;;;;;33.22;16.35;;;-1.50;77.70;;;;;;4178322;28;20029;-84
2022/12/09 01:04:17;;;;;;;30.05;15.25;;;-1.50;77.70;;;;;;4182545;28;20697;-83
2022/12/09 01:06:38;;;;;;;30.02;14.82;;;-1.50;77.70;;;;;;4180675;28;20088;-84
2022/12/09 01:08:59;;;;;;;34.05;13.77;;;-1.50;77.80;;;;;;4179125;28;20127;-84
2022/12/09 01:11:27;;;;;;;28.17;13.38;;;-1.50;77.80;;;;;;4177488;28;20028;-84
2022/12/09 01:13:28;;;;;;;28.40;13.35;;;-1.50;77.90;;;;;;4171658;28;20403;-83
2022/12/09 01:15:49;;;;;;;29.90;14.52;;;-1.50;78.00;;;;;;4178966;28;20032;-83
2022/12/09 01:18:11;;;;;;;28.77;13.48;;;-1.50;77.90;;;;;;4178271;28;20040;-84
2022/12/09 01:20:32;;;;;;;30.50;13.02;;;-1.50;77.90;;;;;;4181182;28;20036;-83
2022/12/09 01:22:53;;;;;;;30.33;14.05;;;-1.40;78.10;;;;;;4176734;28;20037;-83
2022/12/09 01:25:14;;;;;;;34.58;13.77;;;-1.40;78.00;;;;;;4177832;28;20045;-83
2022/12/09 01:27:34;;;;;;;31.65;13.55;;;-1.40;78.00;;;;;;4184151;28;20033;-83
2022/12/09 01:29:55;;;;;;;26.10;12.50;;;-1.40;78.10;;;;;;4180798;28;20036;-84
2022/12/09 01:32:16;;;;;;;31.60;13.38;;;-1.40;78.10;;;;;;4179415;28;20028;-84
2022/12/09 01:34:36;;;;;;;30.40;12.98;;;-1.40;78.10;;;;;;4186077;28;20039;-82
2022/12/09 01:36:57;;;;;;;26.23;11.70;;;-1.40;78.20;;;;;;4184105;28;20125;-84
2022/12/09 01:39:18;;;;;;;31.80;13.57;;;-1.40;78.30;;;;;;4173370;28;20060;-84
2022/12/09 01:41:39;;;;;;;29.85;13.07;;;-1.30;78.30;;;;;;4205504;28;20075;-85
2022/12/09 01:44:07;;;;;;;23.85;12.13;;;-1.30;78.40;;;;;;4190590;28;20032;-83
2022/12/09 01:46:28;;;;;;;25.58;12.88;;;-1.30;78.40;;;;;;4190831;28;20044;-85
2022/12/09 01:48:49;;;;;;;27.83;13.25;;;-1.30;78.40;;;;;;4173114;28;20032;-84
2022/12/09 01:51:17;;;;;;;24.17;11.70;;;-1.30;78.40;;;;;;4190703;28;20032;-84
2022/12/09 01:53:41;;;;;;;19.95;10.70;;;-1.30;79.10;;;;;;4182383;28;20032;-84
2022/12/09 01:56:07;;;;;;;23.63;11.52;;;-1.30;78.30;;;;;;4183629;28;20436;-84
2022/12/09 01:58:28;;;;;;;20.42;9.90;;;-1.20;78.30;;;;;;4185157;28;20666;-82
2022/12/09 02:00:49;;;;;;;21.38;10.35;;;-1.20;78.30;;;;;;4183389;28;20100;-84
2022/12/09 02:03:09;;;;;;;20.05;10.43;;;-1.20;78.20;;;;;;4180596;28;20501;-83
2022/12/09 02:05:30;;;;;;;19.02;9.77;;;-1.20;78.30;;;;;;4181705;28;20103;-83
2022/12/09 02:07:51;;;;;;;20.13;10.05;;;-1.20;78.30;;;;;;4181089;28;20033;-83
2022/12/09 02:10:14;;;;;;;20.77;10.43;;;-1.20;78.20;;;;;;4173958;28;20144;-82
2022/12/09 02:12:59;;;;;;;18.27;9.88;;;-1.20;78.30;;;;;;4173226;28;20061;-82
2022/12/09 02:15:21;;;;;;;;;;;-1.20;78.30;;;;;;4178944;28;21845;-82
2022/12/09 02:17:48;;;;;;;23.75;12.65;;;-1.10;78.80;;;;;;4182451;28;20039;-82
2022/12/09 02:20:15;;;;;;;23.13;10.60;;;-1.10;78.50;;;;;;4184470;28;20032;-82
2022/12/09 02:22:46;;;;;;;19.92;10.77;;;-1.10;78.40;;;;;;4183730;28;20108;-82
2022/12/09 02:25:37;;;;;;;24.30;11.85;;;-1.10;78.40;;;;;;4185632;28;20029;-82
2022/12/09 02:28:27;;;;;;;23.35;11.43;;;-1.10;78.60;;;;;;4180324;28;20037;-82
2022/12/09 02:31:03;;;;;;;22.20;11.65;;;-1.10;78.60;;;;;;4180547;28;20128;-82
2022/12/09 02:33:34;;;;;;;24.30;11.88;;;-1.10;78.60;;;;;;4179209;28;20235;-82
2022/12/09 02:36:09;;;;;;;26.80;11.80;;;-1.10;78.60;;;;;;4181752;28;20040;-83
2022/12/09 02:38:32;;;;;;;23.35;12.10;;;-1.00;78.80;;;;;;4176511;28;20028;-84
2022/12/09 02:41:04;;;;;;;19.33;10.35;;;-1.00;78.80;;;;;;4180785;28;20060;-84
2022/12/09 02:43:29;;;;;;;22.45;10.82;;;-1.00;78.80;;;;;;4178196;28;20035;-85
2022/12/09 02:45:51;;;;;;;26.52;12.02;;;-1.00;78.90;;;;;;4186318;28;20028;-84
2022/12/09 02:48:15;;;;;;;26.05;12.10;;;-1.00;78.80;;;;;;4175850;28;20024;-85
2022/12/09 02:50:38;;;;;;;23.52;11.27;;;-0.90;78.90;;;;;;4183288;28;20155;-84
2022/12/09 02:53:00;;;;;;;25.25;11.80;;;-0.90;78.90;;;;;;4181003;28;20114;-84
2022/12/09 02:55:21;;;;;;;23.55;11.43;;;-0.90;79.00;;;;;;4180702;28;20044;-84
2022/12/09 02:57:41;;;;;;;31.35;12.57;;;-0.90;79.10;;;;;;4182219;28;20090;-83
2022/12/09 03:00:01;;;;;;;30.88;13.52;;;-0.90;79.00;;;;;;4179118;28;20431;-82
2022/12/09 03:02:34;;;;;;;33.38;16.42;;;-0.90;79.20;;;;;;4183536;28;20047;-84
2022/12/09 03:05:14;;;;;;;26.10;12.88;;;-0.80;79.30;;;;;;4178550;28;20473;-84
2022/12/09 03:07:47;;;;;;;26.15;12.38;;;-0.80;79.20;;;;;;4175345;28;20071;-83
2022/12/09 03:10:19;;;;;;;27.67;12.80;;;-0.80;79.20;;;;;;4187866;28;20103;-83
2022/12/09 03:12:44;;;;;;;27.17;12.30;;;-0.70;79.30;;;;;;4193136;28;20093;-84
2022/12/09 03:15:06;;;;;;;66.47;32.15;;;-0.70;79.30;;;;;;4178281;28;20504;-84
2022/12/09 03:17:36;;;;;;;50.03;25.73;;;-0.70;79.40;;;;;;4173202;28;20116;-83
2022/12/09 03:20:02;;;;;;;28.30;15.77;;;-0.70;79.30;;;;;;4177392;28;20086;-84
2022/12/09 03:22:27;;;;;;;26.10;12.65;;;-0.70;79.40;;;;;;4178868;28;20056;-84
2022/12/09 03:25:04;;;;;;;25.38;12.63;;;-0.60;79.40;;;;;;4177111;28;20075;-84
2022/12/09 03:27:46;;;;;;;24.05;11.20;;;-0.60;79.50;;;;;;4181847;28;20043;-83
2022/12/09 03:30:07;;;;;;;26.05;12.48;;;-0.60;79.40;;;;;;4177475;28;20129;-84
2022/12/09 03:32:29;;;;;;;23.92;11.40;;;-0.60;79.50;;;;;;4196064;28;20453;-84
2022/12/09 03:34:47;;;;;;;27.83;13.32;;;-0.50;79.50;;;;;;4182625;28;20629;-85
2022/12/09 03:37:08;;;;;;;28.25;12.52;;;-0.50;79.60;;;;;;4180077;28;20082;-83
2022/12/09 03:39:31;;;;;;;33.20;13.00;;;-0.50;79.60;;;;;;4172805;28;20043;-82
2022/12/09 03:41:55;;;;;;;27.35;12.55;;;-0.50;79.60;;;;;;4173673;28;20083;-83
2022/12/09 03:44:45;;;;;;;34.78;13.25;;;-0.50;79.60;;;;;;4185527;28;20193;-83
2022/12/09 03:47:07;;;;;;;26.70;12.63;;;-0.40;79.80;;;;;;4179222;28;20917;-84
2022/12/09 03:49:26;;;;;;;29.08;13.25;;;-0.40;79.70;;;;;;4183833;28;20048;-83
2022/12/09 03:52:18;;;;;;;35.90;13.73;;;-0.40;79.80;;;;;;4183471;28;20035;-84
2022/12/09 03:54:46;;;;;;;33.35;15.05;;;-0.40;79.80;;;;;;4186605;28;20585;-84
2022/12/09 03:57:10;;;;;;;28.15;13.23;;;-0.40;80.00;;;;;;4181724;28;20048;-84
2022/12/09 03:59:32;;;;;;;27.73;11.88;;;-0.40;80.00;;;;;;4177305;28;20036;-86
2022/12/09 04:01:52;;;;;;;27.33;11.60;;;-0.40;80.00;;;;;;4181058;28;20043;-84
2022/12/09 04:04:11;;;;;;;30.02;12.23;;;-0.30;80.00;;;;;;4176322;28;20031;-84
2022/12/09 04:06:31;;;;;;;34.83;13.07;;;-0.30;79.80;;;;;;4174811;28;20162;-84
2022/12/09 04:08:50;;;;;;;47.92;12.93;;;-0.30;79.80;;;;;;4182959;28;20040;-84
2022/12/09 04:11:09;;;;;;;25.55;11.73;;;-0.30;79.80;;;;;;4182861;28;20039;-84
2022/12/09 04:13:28;;;;;;;31.55;11.60;;;-0.30;79.70;;;;;;4183445;28;20073;-84
2022/12/09 04:15:47;;;;;;;25.83;12.27;;;-0.20;79.90;;;;;;4182954;28;20522;-84
2022/12/09 04:18:06;;;;;;;31.42;12.68;;;-0.20;79.90;;;;;;4181858;28;20408;-83
2022/12/09 04:20:25;;;;;;;32.35;13.05;;;-0.20;79.80;;;;;;4181163;28;20035;-84
2022/12/09 04:22:44;;;;;;;35.60;13.65;;;-0.20;79.90;;;;;;4181042;28;20112;-83
2022/12/09 04:25:04;;;;;;;30.83;13.38;;;-0.20;79.80;;;;;;4183080;28;20040;-83
2022/12/09 04:27:23;;;;;;;31.25;12.48;;;-0.20;79.80;;;;;;4183429;28;20104;-83
2022/12/09 04:29:42;;;;;;;31.80;12.60;;;-0.20;79.70;;;;;;4183288;28;20075;-83
2022/12/09 04:32:01;;;;;;;33.15;12.75;;;-0.20;79.80;;;;;;4178436;28;20039;-84
2022/12/09 04:34:20;;;;;;;30.05;12.35;;;-0.20;79.80;;;;;;4181885;28;20099;-83
2022/12/09 04:36:40;;;;;;;31.23;13.50;;;-0.20;79.70;;;;;;4181439;28;20605;-84
2022/12/09 04:38:59;;;;;;;30.35;13.77;;;-0.10;79.80;;;;;;4177183;28;20054;-84
2022/12/09 04:41:18;;;;;;;29.00;13.02;;;-0.20;79.70;;;;;;4187660;28;20019;-83
2022/12/09 04:43:38;;;;;;;29.70;12.45;;;-0.10;79.70;;;;;;4184571;28;20052;-82
2022/12/09 04:46:04;;;;;;;29.15;12.30;;;-0.10;79.70;;;;;;4186028;28;20114;-84
2022/12/09 04:48:24;;;;;;;31.30;12.98;;;-0.10;79.70;;;;;;4181490;28;20047;-83
2022/12/09 04:50:43;;;;;;;27.25;11.73;;;-0.10;79.70;;;;;;4183013;28;20116;-84
2022/12/09 04:53:02;;;;;;;27.83;12.45;;;-0.10;79.80;;;;;;4178158;28;20098;-85
2022/12/09 04:55:21;;;;;;;25.30;12.23;;;-0.10;79.80;;;;;;4182519;28;20138;-83
2022/12/09 04:57:40;;;;;;;23.08;11.40;;;-0.10;79.80;;;;;;4176757;28;20090;-85
2022/12/09 05:00:00;;;;;;;28.83;13.32;;;-0.10;79.90;;;;;;4175173;28;20079;-85
2022/12/09 05:02:19;;;;;;;33.58;14.30;;;-0.10;80.00;;;;;;4179310;28;20051;-84
2022/12/09 05:04:38;;;;;;;26.35;12.23;;;-0.10;80.00;;;;;;4174953;28;20031;-85
2022/12/09 05:06:57;;;;;;;28.73;13.05;;;-0.10;80.10;;;;;;4179439;28;20047;-84
2022/12/09 05:09:16;;;;;;;28.08;13.45;;;0.00;80.00;;;;;;4179702;28;20039;-86
2022/12/09 05:11:35;;;;;;;31.85;13.73;;;0.00;80.10;;;;;;4183008;28;20460;-85
2022/12/09 05:13:55;;;;;;;29.63;13.40;;;0.00;80.20;;;;;;4185533;28;20075;-85
2022/12/09 05:16:17;;;;;;;29.95;13.82;;;0.00;80.30;;;;;;4186465;28;20079;-84
2022/12/09 05:18:36;;;;;;;28.52;13.65;;;0.00;80.00;;;;;;4188532;28;20074;-84
2022/12/09 05:20:38;;;;;;;34.25;12.90;;;0.00;80.50;;;;;;4178218;28;20073;-84
2022/12/09 05:22:41;;;;;;;31.23;13.07;;;0.10;80.50;;;;;;4170735;28;20025;-90
2022/12/09 05:24:43;;;;;;;29.90;12.27;;;0.10;80.50;;;;;;4183904;28;20031;-84
2022/12/09 05:26:43;;;;;;;39.72;14.18;;;0.10;80.50;;;;;;4176369;28;20405;-84
2022/12/09 05:28:46;;;;;;;28.58;13.35;;;0.10;80.50;;;;;;4183819;28;20024;-85
2022/12/09 05:30:46;;;;;;;27.77;12.70;;;0.20;80.80;;;;;;4170127;28;20067;-85
2022/12/09 05:32:47;;;;;;;25.65;12.85;;;0.20;80.60;;;;;;4177496;28;20835;-84
2022/12/09 05:34:47;;;;;;;35.08;14.40;;;0.20;80.70;;;;;;4172119;28;20036;-85
2022/12/09 05:36:48;;;;;;;28.45;12.23;;;0.20;80.80;;;;;;4179417;28;20037;-85
2022/12/09 05:38:49;;;;;;;31.17;13.02;;;0.20;80.80;;;;;;4173930;28;20083;-85
2022/12/09 05:40:51;;;;;;;28.23;13.65;;;0.20;80.70;;;;;;4172850;28;20078;-85
2022/12/09 05:42:51;;;;;;;35.42;12.13;;;0.30;80.70;;;;;;4173501;28;20040;-86
2022/12/09 05:44:53;;;;;;;31.08;12.60;;;0.30;80.80;;;;;;4181096;28;20170;-85
2022/12/09 05:46:54;;;;;;;31.42;13.73;;;0.30;80.80;;;;;;4180534;28;20033;-86
2022/12/09 05:48:54;;;;;;;29.20;14.18;;;0.30;80.90;;;;;;4190831;28;20039;-87
2022/12/09 05:51:17;;;;;;;31.15;14.57;;;0.30;80.90;;;;;;4189988;28;20029;-87
2022/12/09 05:53:18;;;;;;;35.67;14.35;;;0.30;81.00;;;;;;4187104;28;20036;-86
2022/12/09 05:55:19;;;;;;;32.90;13.85;;;0.40;81.10;;;;;;4203831;28;20040;-87
2022/12/09 05:57:20;;;;;;;27.50;14.75;;;0.40;80.90;;;;;;4176857;28;20059;-84
2022/12/09 05:59:20;;;;;;;30.70;14.38;;;0.40;81.00;;;;;;4188310;28;20028;-86
2022/12/09 06:01:22;;;;;;;31.17;14.55;;;0.40;81.00;;;;;;4184460;28;20021;-86
2022/12/09 06:03:23;;;;;;;36.47;15.50;;;0.40;81.00;;;;;;4185220;28;20079;-86
2022/12/09 06:05:24;;;;;;;28.58;14.13;;;0.50;81.00;;;;;;4184319;28;20385;-86
2022/12/09 06:07:24;;;;;;;31.88;14.90;;;0.50;81.00;;;;;;4184612;28;20033;-86
2022/12/09 06:09:25;;;;;;;32.75;14.88;;;0.50;81.00;;;;;;4181995;28;20036;-85
2022/12/09 06:11:38;;;;;;;34.42;15.40;;;0.60;80.90;;;;;;4186061;28;20428;-84
2022/12/09 06:13:59;;;;;;;31.80;15.10;;;0.50;80.90;;;;;;4192371;28;20269;-86
2022/12/09 06:16:21;;;;;;;31.38;15.07;;;0.50;80.90;;;;;;4179024;28;20032;-85
2022/12/09 06:18:41;;;;;;;30.15;14.70;;;0.50;80.90;;;;;;4182747;28;20028;-85
2022/12/09 06:20:57;;;;;;;29.38;14.48;;;0.60;80.90;;;;;;4170238;28;20055;-86
2022/12/09 06:23:01;;;;;;;30.50;14.90;;;0.60;81.00;;;;;;4169537;28;20032;-84
2022/12/09 06:25:22;;;;;;;29.75;14.20;;;0.60;80.80;;;;;;4174611;28;20063;-84
2022/12/09 06:27:41;;;;;;;32.00;13.80;;;0.60;80.80;;;;;;4170354;28;20121;-85
2022/12/09 06:30:02;;;;;;;28.25;14.20;;;0.60;80.70;;;;;;4186226;28;20122;-86
2022/12/09 06:32:23;;;;;;;32.78;13.75;;;0.60;80.80;;;;;;4183227;28;20029;-87
2022/12/09 06:34:44;;;;;;;27.73;13.05;;;0.60;80.60;;;;;;4181829;28;20090;-86
2022/12/09 06:37:04;;;;;;;27.52;13.27;;;0.60;80.70;;;;;;4188870;28;20064;-86
2022/12/09 06:39:25;;;;;;;32.58;14.45;;;0.60;80.70;;;;;;4180300;28;20029;-85
2022/12/09 06:41:46;;;;;;;25.75;13.13;;;0.60;80.70;;;;;;4190690;28;20050;-86
2022/12/09 06:44:07;;;;;;;25.65;12.75;;;0.60;81.30;;;;;;4181823;28;20132;-85
2022/12/09 06:46:27;;;;;;;30.38;11.98;;;0.60;81.40;;;;;;4187227;28;20033;-86
2022/12/09 06:48:48;;;;;;;30.90;12.32;;;0.70;80.70;;;;;;4178593;28;20090;-87
2022/12/09 06:51:09;;;;;;;27.25;13.30;;;0.70;80.70;;;;;;4185611;28;20032;-87
2022/12/09 06:53:30;;;;;;;33.67;12.70;;;0.70;80.70;;;;;;4183619;28;20037;-86
2022/12/09 06:55:50;;;;;;;29.90;11.93;;;0.70;80.70;;;;;;4185512;28;20050;-86
2022/12/09 06:58:11;;;;;;;26.60;12.10;;;0.70;80.70;;;;;;4178531;28;20040;-84
2022/12/09 07:00:32;;;;;;;28.35;13.05;;;0.70;80.70;;;;;;4174581;28;20223;-85
2022/12/09 07:02:53;;;;;;;26.63;12.77;;;0.70;80.50;;;;;;4175334;28;20035;-87
2022/12/09 07:05:13;;;;;;;27.25;13.15;;;0.70;80.50;;;;;;4183840;28;20120;-87
2022/12/09 07:07:34;;;;;;;35.47;13.98;;;0.70;80.50;;;;;;4182018;28;20036;-86
2022/12/09 07:09:54;;;;;;;36.85;14.07;;;0.70;80.50;;;;;;4181433;28;20033;-86
2022/12/09 07:12:15;;;;;;;35.40;14.15;;;0.70;80.50;;;;;;4182477;28;20037;-86
2022/12/09 07:14:36;;;;;;;35.38;15.25;;;0.70;80.40;;;;;;4172396;28;20147;-86
2022/12/09 07:16:56;;;;;;;25.63;13.50;;;0.70;80.90;;;;;;4175374;28;20033;-86
2022/12/09 07:19:19;;;;;;;32.17;15.55;;;0.70;80.40;;;;;;4178721;28;20033;-87
2022/12/09 07:21:40;;;;;;;27.90;14.23;;;0.70;80.30;;;;;;4182696;28;20156;-85
2022/12/09 07:24:01;;;;;;;28.38;14.07;;;0.70;80.40;;;;;;4172914;28;20151;-85
2022/12/09 07:26:22;;;;;;;33.05;13.90;;;0.70;80.40;;;;;;4178499;28;20021;-86
2022/12/09 07:28:45;;;;;;;35.47;14.57;;;0.90;80.40;;;;;;4175976;28;20025;-85
2022/12/09 07:31:15;;;;;;;32.22;13.57;;;0.70;81.00;;;;;;4178867;28;20032;-87
2022/12/09 07:33:36;;;;;;;30.95;13.93;;;0.60;80.10;;;;;;4170233;28;22566;-85
2022/12/09 07:35:57;;;;;;;30.80;13.07;;;0.70;80.30;;;;;;4178693;28;20037;-87
2022/12/09 07:38:18;;;;;;;27.30;12.73;;;0.70;80.30;;;;;;4177470;28;20033;-87
2022/12/09 07:40:39;;;;;;;31.05;13.43;;;0.70;80.10;;;;;;4181923;28;20040;-87
2022/12/09 07:42:59;;;;;;;31.52;13.43;;;0.70;80.10;;;;;;4178670;28;20059;-86
2022/12/09 07:45:21;;;;;;;33.83;13.38;;;0.70;80.10;;;;;;4197537;28;20048;-85
2022/12/09 07:47:41;;;;;;;26.45;13.02;;;0.70;80.10;;;;;;4191356;28;20024;-85
2022/12/09 07:50:00;;;;;;;26.38;11.52;;;0.80;80.10;;;;;;4186259;28;20411;-86
2022/12/09 07:52:19;;;;;;;26.25;11.15;;;0.70;80.00;;;;;;4188643;28;20034;-86
2022/12/09 07:54:38;;;;;;;25.40;12.15;;;0.70;80.00;;;;;;4182844;28;20116;-85
2022/12/09 07:56:57;;;;;;;25.92;11.95;;;0.60;79.90;;;;;;4179271;28;20424;-86
2022/12/09 07:59:17;;;;;;;32.85;12.05;;;0.60;79.90;;;;;;4182177;28;20040;-87
2022/12/09 08:01:37;;;;;;;32.78;13.30;;;0.60;79.90;;;;;;4180670;28;20552;-87
2022/12/09 08:03:57;;;;;;;27.30;12.05;;;0.60;79.90;;;;;;4173866;28;20063;-88
2022/12/09 08:06:19;;;;;;;21.75;11.10;;;0.60;80.70;;;;;;4179868;28;20060;-88
2022/12/09 08:08:38;;;;;;;31.20;12.50;;;0.60;79.80;;;;;;4175316;28;20459;-87
2022/12/09 08:11:08;;;;;;;30.45;11.82;;;0.60;79.80;;;;;;4172511;28;20174;-87
2022/12/09 08:13:27;;;;;;;29.42;13.65;;;0.60;79.80;;;;;;4174182;28;20051;-86
2022/12/09 08:15:46;;;;;;;29.25;13.95;;;0.50;79.80;;;;;;4171702;28;20071;-86
2022/12/09 08:18:06;;;;;;;37.50;13.70;;;0.50;80.00;;;;;;4177187;28;20044;-86
2022/12/09 08:20:27;;;;;;;27.75;12.15;;;0.50;79.80;;;;;;4170679;28;20139;-87
2022/12/09 08:22:48;;;;;;;28.80;12.52;;;0.50;79.80;;;;;;4176930;28;20056;-87
2022/12/09 08:25:08;;;;;;;22.80;11.60;;;0.50;79.90;;;;;;4175561;28;20035;-87
2022/12/09 08:27:27;;;;;;;29.52;12.23;;;0.50;79.90;;;;;;4174338;28;20047;-86
2022/12/09 08:29:47;;;;;;;28.83;12.18;;;0.50;80.00;;;;;;4174809;28;20039;-88
2022/12/09 08:32:06;;;;;;;24.33;11.88;;;0.50;80.00;;;;;;4175937;28;20047;-86
2022/12/09 08:34:25;;;;;;;25.25;12.23;;;0.50;80.00;;;;;;4179426;28;20120;-88
2022/12/09 08:36:44;;;;;;;36.15;12.73;;;0.50;80.00;;;;;;4169577;28;20565;-86
2022/12/09 08:39:04;;;;;;;37.13;13.70;;;0.50;80.70;;;;;;4173269;28;20040;-83
2022/12/09 08:41:35;;;;;;;27.63;12.70;;;0.50;80.10;;;;;;4170221;28;20072;-87
2022/12/09 08:43:56;;;;;;;26.45;12.10;;;0.50;79.90;;;;;;4175454;28;20094;-86
2022/12/09 08:46:15;;;;;;;28.73;13.93;;;0.50;80.00;;;;;;4172572;28;20044;-86
2022/12/09 08:48:36;;;;;;;23.85;12.60;;;0.50;80.00;;;;;;4174434;28;20051;-87
2022/12/09 08:50:56;;;;;;;32.42;13.82;;;0.50;80.10;;;;;;4173115;28;20051;-86
2022/12/09 08:53:15;;;;;;;26.90;12.73;;;0.50;80.10;;;;;;4181510;28;20040;-87
2022/12/09 08:55:38;;;;;;;27.83;12.63;;;0.50;80.10;;;;;;4179079;28;20047;-88
2022/12/09 08:57:57;;;;;;;36.65;14.10;;;0.50;80.00;;;;;;4176066;28;20088;-87
2022/12/09 09:00:17;;;;;;;31.02;12.93;;;0.50;80.00;;;;;;4174094;28;20547;-87
2022/12/09 09:02:36;;;;;;;27.30;12.88;;;0.50;80.00;;;;;;4173329;28;20032;-87
2022/12/09 09:04:58;;;;;;;26.17;12.45;;;0.50;80.00;;;;;;4173013;28;20543;-87
2022/12/09 09:07:18;;;;;;;27.30;12.68;;;0.50;80.00;;;;;;4176196;28;20042;-88
2022/12/09 09:09:37;;;;;;;28.45;14.23;;;0.50;79.90;;;;;;4179647;28;20043;-88
2022/12/09 09:11:56;;;;;;;29.80;13.95;;;0.50;80.00;;;;;;4170921;28;20040;-86
2022/12/09 09:14:16;;;;;;;31.30;13.02;;;0.50;80.00;;;;;;4174321;28;20116;-88
2022/12/09 09:16:39;;;;;;;26.23;13.02;;;0.50;79.80;;;;;;4176420;28;20035;-84
2022/12/09 09:18:58;;;;;;;30.50;15.05;;;0.50;79.70;;;;;;4173029;28;20052;-87
2022/12/09 09:21:20;;;;;;;28.98;13.35;;;0.50;79.70;;;;;;4190393;28;20083;-87
2022/12/09 09:23:40;;;;;;;32.28;14.05;;;0.50;79.70;;;;;;4172516;28;20679;-85
2022/12/09 09:26:00;;;;;;;25.92;13.00;;;0.50;79.60;;;;;;4180796;28;20052;-85
2022/12/09 09:28:19;;;;;;;28.35;13.32;;;0.50;79.70;;;;;;4178784;28;20130;-88
2022/12/09 09:30:39;;;;;;;29.92;12.65;;;0.50;79.70;;;;;;4177040;28;20079;-87
2022/12/09 09:32:58;;;;;;;29.17;12.45;;;0.50;79.70;;;;;;4173384;28;20074;-86
2022/12/09 09:35:17;;;;;;;32.30;15.48;;;0.50;79.70;;;;;;4177600;28;20051;-86
2022/12/09 09:37:38;;;;;;;30.17;14.00;;;0.50;79.90;;;;;;4169316;28;20043;-86
2022/12/09 09:39:59;;;;;;;30.00;14.13;;;0.50;79.90;;;;;;4172341;28;20039;-86
2022/12/09 09:42:26;;;;;;;31.13;13.82;;;0.50;79.80;;;;;;4172814;28;20087;-86
2022/12/09 09:44:49;;;;;;;30.15;14.10;;;0.50;79.80;;;;;;4176694;28;20032;-87
2022/12/09 09:47:36;;;;;;;30.33;13.70;;;0.50;79.70;;;;;;4180284;28;20067;-85
2022/12/09 09:50:00;;;;;;;38.70;15.30;;;0.50;79.90;;;;;;4171863;28;20044;-87
2022/12/09 09:52:25;;;;;;;32.13;14.00;;;0.50;79.80;;;;;;4178431;28;20434;-87
2022/12/09 09:54:45;;;;;;;31.35;14.68;;;0.50;79.80;;;;;;4174431;28;20108;-87
2022/12/09 09:57:18;;;;;;;25.13;13.15;;;0.50;79.90;;;;;;4172728;28;20824;-87
2022/12/09 09:59:51;;;;;;;28.58;13.70;;;0.60;79.90;;;;;;4172710;28;20392;-85
2022/12/09 10:02:10;;;;;;;28.23;13.07;;;0.50;79.80;;;;;;4173166;28;20128;-88
2022/12/09 10:04:41;;;;;;;29.08;14.07;;;0.60;79.90;;;;;;4173314;28;20043;-85
2022/12/09 10:07:09;;;;;;;30.52;14.13;;;0.60;80.00;;;;;;4173417;28;20043;-86
2022/12/09 10:09:38;;;;;;;26.92;13.35;;;0.60;80.00;;;;;;4180028;28;20055;-85
2022/12/09 10:12:09;;;;;;;28.85;13.57;;;0.60;80.00;;;;;;4182253;28;20044;-86
2022/12/09 10:14:57;;;;;;;27.40;13.75;;;0.60;79.90;;;;;;4171516;28;20079;-85
2022/12/09 10:17:25;;;;;;;30.60;14.15;;;0.70;80.00;;;;;;4175425;28;20082;-86
2022/12/09 10:19:48;;;;;;;29.92;14.80;;;0.70;79.90;;;;;;4173198;28;20560;-88
2022/12/09 10:22:21;;;;;;;33.77;14.83;;;0.70;80.00;;;;;;4176934;28;20048;-87
2022/12/09 10:24:53;;;;;;;27.85;13.95;;;0.70;80.10;;;;;;4177451;28;20611;-88
2022/12/09 10:27:37;;;;;;;29.88;13.57;;;0.70;79.90;;;;;;4174248;28;20036;-85
2022/12/09 10:30:14;;;;;;;25.15;12.82;;;0.70;80.00;;;;;;4176774;28;20485;-87
2022/12/09 10:32:35;;;;;;;24.83;12.95;;;0.70;79.90;;;;;;4178215;28;20039;-85
2022/12/09 10:34:54;;;;;;;24.38;12.25;;;0.80;80.10;;;;;;4182947;28;20040;-88
2022/12/09 10:37:34;;;;;;;25.90;12.98;;;0.80;80.20;;;;;;4178317;28;20397;-87
2022/12/09 10:40:11;;;;;;;26.10;13.57;;;0.80;80.20;;;;;;4172737;28;20121;-86
2022/12/09 10:45:11;;;;;;;26.98;13.50;;;0.80;80.10;;;;;;4173945;28;20072;-88
2022/12/09 10:47:30;;;;;;;54.33;24.33;;;0.80;80.00;;;;;;4177610;28;20062;-87
2022/12/09 10:49:51;;;;;;;94.60;40.05;;;0.90;80.00;;;;;;4175998;28;20286;-85
2022/12/09 10:52:10;;;;;;;53.45;24.83;;;0.90;80.00;;;;;;4198777;28;20039;-86
2022/12/09 10:54:29;;;;;;;42.55;19.15;;;0.90;79.90;;;;;;4178381;28;21034;-88
2022/12/09 10:57:09;;;;;;;32.70;17.55;;;1.00;79.80;;;;;;4175569;28;20596;-87
2022/12/09 10:59:29;;;;;;;31.63;16.10;;;0.90;79.70;;;;;;4178564;28;20799;-87
2022/12/09 11:02:21;;;;;;;27.00;14.57;;;0.90;79.60;;;;;;4175817;28;20702;-86
2022/12/09 11:04:42;;;;;;;27.02;14.60;;;0.90;79.60;;;;;;4162702;28;20079;-86
2022/12/09 11:07:04;;;;;;;35.63;15.52;;;0.90;79.60;;;;;;4172188;28;20117;-87
2022/12/09 11:09:31;;;;;;;27.85;14.55;;;1.10;79.80;;;;;;4183720;28;20083;-85
2022/12/09 11:11:50;;;;;;;36.00;16.08;;;0.90;79.60;;;;;;4166809;28;20127;-87
2022/12/09 11:14:37;;;;;;;30.10;14.10;;;0.90;79.50;;;;;;4183931;28;20127;-85
2022/12/09 11:17:10;;;;;;;29.83;15.27;;;1.00;79.60;;;;;;4170856;28;20044;-87
2022/12/09 11:19:34;;;;;;;29.50;14.23;;;0.90;79.50;;;;;;4186827;28;20038;-83
2022/12/09 11:22:19;;;;;;;24.92;13.43;;;0.90;79.40;;;;;;4173786;28;20170;-85
2022/12/09 11:24:42;;;;;;;26.27;13.85;;;1.00;79.50;;;;;;4183498;28;20615;-87
2022/12/09 11:27:01;;;;;;;29.37;14.97;;;1.00;79.50;;;;;;4179156;28;20136;-87
2022/12/09 11:29:20;;;;;;;29.35;13.60;;;1.00;79.60;;;;;;4165811;28;20376;-86
2022/12/09 11:31:41;;;;;;;24.00;12.73;;;1.00;79.60;;;;;;4167692;28;20135;-86
2022/12/09 11:34:04;;;;;;;31.50;14.25;;;1.00;79.60;;;;;;4175727;28;20030;-87
2022/12/09 11:36:28;;;;;;;27.97;14.57;;;1.00;79.70;;;;;;4179996;28;20087;-85
2022/12/09 11:38:51;;;;;;;25.75;13.93;;;1.10;79.70;;;;;;4167047;28;20044;-86
2022/12/09 11:41:10;;;;;;;28.73;14.45;;;1.10;79.70;;;;;;4171092;28;20040;-87
2022/12/09 11:43:43;;;;;;;33.25;14.73;;;1.10;79.70;;;;;;4169078;28;20071;-84
2022/12/09 11:46:21;;;;;;;32.65;14.65;;;1.10;79.60;;;;;;4180067;28;20566;-86
2022/12/09 11:48:54;;;;;;;31.83;14.48;;;1.20;79.70;;;;;;4177502;28;20061;-84
2022/12/09 11:51:31;;;;;;;27.30;13.55;;;1.20;79.70;;;;;;4173093;28;20037;-83
2022/12/09 11:53:54;;;;;;;31.63;14.60;;;1.20;79.80;;;;;;4175081;28;20444;-87
2022/12/09 11:56:24;;;;;;;33.92;14.98;;;1.30;79.80;;;;;;4178369;28;20040;-86
2022/12/09 11:58:53;;;;;;;32.88;14.77;;;1.30;79.80;;;;;;4175220;28;20050;-87
2022/12/09 12:01:18;;;;;;;25.70;13.77;;;1.30;79.80;;;;;;4182438;28;20051;-86
2022/12/09 12:04:00;;;;;;;30.17;13.50;;;1.30;79.70;;;;;;4174591;28;20040;-85